Terminal Aerodrome Forecast
Issued by NWS Billings, MT

Home | Current Version | Previous Version | Text Only | Print | Product List | Glossary On
Versions: 1 2 3 4 5 6 7 8 9 10 11 12 13 14 15 16 17 18
962
FTUS45 KBYZ 221734
TAFBIL
TAF
KBIL 221734Z 2218/2318 06008KT P6SM SCT150
     FM222100 08014KT P6SM VCTS SCT050CB BKN150
     FM230400 04010KT P6SM FEW050 BKN150=

USA.gov is the U.S. government's official web portal to all federal, state and local government web resources and services.